createdAt,value
2023-02-25T00:01:15.456Z,26.20
2023-02-25T00:03:44.268Z,27.03
2023-02-25T00:06:13.899Z,32.23
2023-02-25T00:08:43.886Z,38.40
2023-02-25T00:11:12.161Z,41.73
2023-02-25T00:13:41.161Z,43.50
2023-02-25T00:16:11.014Z,44.03
2023-02-25T00:18:40.936Z,44.97
2023-02-25T00:21:10.046Z,44.00
2023-02-25T00:23:38.616Z,45.03
2023-02-25T00:26:09.089Z,45.23
2023-02-25T00:28:37.348Z,44.80
2023-02-25T00:31:08.280Z,46.30
2023-02-25T00:33:42.268Z,45.20
2023-02-25T00:36:11.868Z,44.07
2023-02-25T00:38:40.086Z,43.77
2023-02-25T00:41:11.951Z,41.80
2023-02-25T00:43:42.287Z,41.80
2023-02-25T00:46:10.707Z,41.13
2023-02-25T00:48:40.679Z,42.60
2023-02-25T00:51:09.418Z,43.23
2023-02-25T00:53:38.816Z,42.90
2023-02-25T00:56:07.708Z,41.57
2023-02-25T00:58:37.023Z,43.10
2023-02-25T01:01:06.275Z,42.63
2023-02-25T01:03:34.500Z,41.07
2023-02-25T01:06:04.704Z,41.83
2023-02-25T01:08:33.106Z,42.87
2023-02-25T01:11:01.260Z,43.57
2023-02-25T01:13:29.567Z,44.17
2023-02-25T01:15:57.812Z,44.50
2023-02-25T01:18:26.053Z,43.83
2023-02-25T01:20:54.375Z,44.40
2023-02-25T01:23:24.211Z,42.30
2023-02-25T01:25:52.504Z,43.87
2023-02-25T01:28:20.729Z,45.60
2023-02-25T01:30:49.004Z,45.33
2023-02-25T01:33:17.309Z,43.57
2023-02-25T01:35:45.509Z,43.63
2023-02-25T01:38:14.425Z,39.90
2023-02-25T01:40:44.344Z,41.03
2023-02-25T01:43:15.542Z,40.77
2023-02-25T01:45:44.681Z,41.13
2023-02-25T01:48:14.897Z,37.00
2023-02-25T01:50:48.689Z,35.97
2023-02-25T01:53:17.405Z,36.50
2023-02-25T01:55:47.122Z,33.47
2023-02-25T01:58:15.421Z,28.07
2023-02-25T02:00:43.761Z,27.93
2023-02-25T02:03:16.157Z,24.93
2023-02-25T02:05:51.426Z,21.03
2023-02-25T02:08:19.762Z,19.83
2023-02-25T02:10:49.473Z,17.77
2023-02-25T02:13:17.706Z,17.87
2023-02-25T02:15:48.919Z,18.93
2023-02-25T02:18:17.173Z,20.70
2023-02-25T02:20:49.630Z,22.37
2023-02-25T02:23:48.084Z,19.67
2023-02-25T02:26:50.027Z,18.63
2023-02-25T02:29:40.805Z,17.97
2023-02-25T02:32:14.771Z,17.10
2023-02-25T02:34:47.671Z,18.33
2023-02-25T02:37:24.830Z,18.83
2023-02-25T02:39:56.052Z,19.73
2023-02-25T02:42:30.102Z,18.40
2023-02-25T02:44:59.809Z,19.53
2023-02-25T02:47:31.307Z,17.13
2023-02-25T02:50:01.522Z,17.37
2023-02-25T02:52:30.889Z,16.57
2023-02-25T02:55:02.394Z,16.37
2023-02-25T02:57:30.683Z,17.30
2023-02-25T03:00:01.154Z,17.57
2023-02-25T03:02:31.937Z,20.10
2023-02-25T03:05:02.002Z,19.87
2023-02-25T03:07:30.497Z,18.40
2023-02-25T03:09:59.615Z,18.87
2023-02-25T03:12:27.846Z,17.47
2023-02-25T03:14:56.094Z,18.37
2023-02-25T03:17:26.320Z,18.13
2023-02-25T03:19:57.895Z,16.20
2023-02-25T03:22:28.044Z,15.93
2023-02-25T03:24:59.178Z,16.03
2023-02-25T03:27:28.680Z,16.40
2023-02-25T03:29:58.598Z,15.70
2023-02-25T03:32:27.027Z,16.53
2023-02-25T03:34:58.002Z,16.50
2023-02-25T03:37:28.670Z,15.73
2023-02-25T03:39:59.612Z,15.37
2023-02-25T03:42:30.967Z,13.57
2023-02-25T03:45:00.775Z,13.10
2023-02-25T03:47:29.327Z,12.80
2023-02-25T03:50:01.132Z,11.23
2023-02-25T03:52:29.726Z,10.37
2023-02-25T03:54:58.683Z,10.43
2023-02-25T03:57:29.547Z,11.17
2023-02-25T03:59:57.788Z,10.60
2023-02-25T04:02:26.292Z,10.90
2023-02-25T04:04:54.615Z,10.20
2023-02-25T04:07:24.250Z,10.43
2023-02-25T04:09:52.464Z,11.50
2023-02-25T04:12:20.727Z,10.90
2023-02-25T04:14:48.963Z,11.10
2023-02-25T04:17:17.239Z,13.80
2023-02-25T04:19:45.481Z,14.03
2023-02-25T04:22:13.702Z,15.70
2023-02-25T04:24:43.343Z,16.07
2023-02-25T04:27:15.588Z,18.17
2023-02-25T04:29:47.137Z,18.60
2023-02-25T04:32:15.488Z,17.50
2023-02-25T04:34:43.864Z,18.77
2023-02-25T04:37:13.321Z,18.63
2023-02-25T04:39:42.980Z,18.40
2023-02-25T04:42:11.262Z,18.70
2023-02-25T04:44:39.562Z,17.67
2023-02-25T04:47:08.573Z,17.10
2023-02-25T04:49:44.760Z,15.77
2023-02-25T04:52:13.712Z,15.00
2023-02-25T04:54:43.517Z,15.13
2023-02-25T04:57:12.349Z,13.20
2023-02-25T04:59:40.573Z,12.80
2023-02-25T05:02:08.961Z,13.73
2023-02-25T05:04:37.708Z,12.20
2023-02-25T05:07:05.974Z,13.20
2023-02-25T05:09:34.363Z,12.30
2023-02-25T05:12:05.351Z,13.00
2023-02-25T05:14:35.043Z,13.50
2023-02-25T05:17:03.323Z,14.17
2023-02-25T05:19:31.556Z,15.17
2023-02-25T05:21:59.824Z,14.30
2023-02-25T05:24:28.069Z,15.40
2023-02-25T05:26:56.317Z,15.20
2023-02-25T05:29:25.993Z,14.93
2023-02-25T05:31:55.300Z,14.13
2023-02-25T05:34:23.966Z,12.63
2023-02-25T05:36:52.230Z,13.80
2023-02-25T05:39:20.611Z,14.00
2023-02-25T05:41:49.011Z,14.17
2023-02-25T05:44:17.246Z,13.17
2023-02-25T05:46:46.871Z,13.77
2023-02-25T05:49:15.140Z,13.40
2023-02-25T05:51:43.374Z,12.37
2023-02-25T05:54:11.731Z,13.00
2023-02-25T05:56:39.956Z,13.40
2023-02-25T05:59:08.164Z,12.53
2023-02-25T06:01:36.456Z,11.03
2023-02-25T06:04:06.094Z,11.93
2023-02-25T06:06:34.326Z,14.90
2023-02-25T06:09:05.881Z,15.40
2023-02-25T06:11:34.125Z,14.57
2023-02-25T06:14:02.578Z,15.57
2023-02-25T06:16:32.426Z,16.33
2023-02-25T06:19:01.423Z,16.50
2023-02-25T06:21:31.093Z,17.93
2023-02-25T06:23:59.377Z,17.87
2023-02-25T06:26:27.745Z,14.93
2023-02-25T06:28:55.989Z,17.03
2023-02-25T06:31:24.809Z,16.77
2023-02-25T06:33:53.449Z,16.47
2023-02-25T06:36:22.267Z,15.53
2023-02-25T06:38:52.206Z,15.00
2023-02-25T06:41:21.443Z,14.20
2023-02-25T06:43:52.438Z,14.53
2023-02-25T06:46:26.971Z,14.47
2023-02-25T06:48:55.794Z,13.10
2023-02-25T06:51:24.049Z,14.97
2023-02-25T06:53:54.041Z,11.80
2023-02-25T06:56:22.911Z,12.20
2023-02-25T06:58:52.720Z,11.07
2023-02-25T07:01:21.145Z,12.17
2023-02-25T07:03:49.679Z,11.70
2023-02-25T07:06:18.201Z,12.73
2023-02-25T07:08:46.595Z,13.07
2023-02-25T07:11:29.156Z,13.07
2023-02-25T07:13:57.642Z,13.23
2023-02-25T07:16:26.294Z,13.30
2023-02-25T07:18:54.693Z,12.53
2023-02-25T07:21:23.123Z,11.93
2023-02-25T07:23:51.522Z,13.63
2023-02-25T07:26:21.388Z,11.97
2023-02-25T07:28:50.004Z,13.20
2023-02-25T07:31:22.497Z,12.63
2023-02-25T07:33:51.064Z,11.27
2023-02-25T07:36:19.330Z,12.13
2023-02-25T07:38:48.662Z,7.80
2023-02-25T07:41:18.672Z,7.03
2023-02-25T07:43:48.449Z,7.37
2023-02-25T07:46:17.100Z,6.37
2023-02-25T07:48:45.345Z,6.80
2023-02-25T07:51:15.603Z,6.27
2023-02-25T07:53:43.839Z,7.30
2023-02-25T07:56:12.231Z,7.87
2023-02-25T07:58:40.540Z,7.30
2023-02-25T08:01:10.778Z,8.40
2023-02-25T08:03:39.180Z,8.87
2023-02-25T08:06:09.196Z,8.97
2023-02-25T08:08:37.636Z,10.40
2023-02-25T08:11:08.801Z,12.27
2023-02-25T08:13:37.077Z,12.27
2023-02-25T08:16:06.377Z,12.60
2023-02-25T08:18:36.170Z,12.63
2023-02-25T08:21:04.699Z,12.73
2023-02-25T08:23:33.132Z,13.00
2023-02-25T08:26:01.660Z,12.97
2023-02-25T08:28:34.322Z,13.03
2023-02-25T08:31:04.757Z,13.27
2023-02-25T08:33:33.098Z,13.60
2023-02-25T08:36:10.285Z,13.90
2023-02-25T08:38:38.645Z,11.23
2023-02-25T08:41:06.987Z,8.97
2023-02-25T08:43:35.244Z,7.33
2023-02-25T08:46:03.474Z,5.70
2023-02-25T08:48:31.733Z,5.33
2023-02-25T08:51:03.944Z,6.93
2023-02-25T08:53:33.609Z,6.37
2023-02-25T08:56:05.333Z,5.53
2023-02-25T08:58:33.705Z,5.47
2023-02-25T09:01:02.244Z,5.93
2023-02-25T09:03:30.499Z,5.60
2023-02-25T09:05:58.758Z,5.20
2023-02-25T09:08:28.421Z,5.90
2023-02-25T09:10:58.087Z,5.40
2023-02-25T09:13:26.340Z,5.50
2023-02-25T09:15:58.339Z,4.30
2023-02-25T09:18:26.683Z,4.23
2023-02-25T09:20:54.919Z,4.53
2023-02-25T09:23:23.180Z,5.13
2023-02-25T09:25:51.453Z,3.30
2023-02-25T09:28:22.908Z,3.30
2023-02-25T09:30:52.605Z,3.17
2023-02-25T09:33:20.888Z,3.10
2023-02-25T09:35:49.109Z,2.90
2023-02-25T09:38:17.560Z,2.80
2023-02-25T09:40:47.170Z,2.80
2023-02-25T09:43:22.253Z,2.80
2023-02-25T09:45:51.163Z,2.60
2023-02-25T09:48:21.557Z,2.43
2023-02-25T09:50:52.118Z,2.33
2023-02-25T09:53:21.578Z,2.90
2023-02-25T09:55:50.919Z,3.00
2023-02-25T09:58:25.340Z,2.77
2023-02-25T10:00:59.037Z,3.60
2023-02-25T10:03:50.429Z,3.20
2023-02-25T10:06:21.398Z,3.03
2023-02-25T10:08:53.641Z,3.43
2023-02-25T10:11:30.595Z,2.37
2023-02-25T10:14:04.604Z,2.60
2023-02-25T10:16:40.116Z,3.00
2023-02-25T10:19:14.484Z,2.53
2023-02-25T10:22:14.756Z,2.57
2023-02-25T10:24:45.459Z,2.63
2023-02-25T10:27:18.641Z,3.50
2023-02-25T10:29:50.353Z,3.17
2023-02-25T10:32:21.352Z,3.03
2023-02-25T10:34:50.539Z,3.13
2023-02-25T10:37:22.551Z,3.17
2023-02-25T10:39:51.434Z,3.37
2023-02-25T10:42:19.665Z,3.83
2023-02-25T10:44:50.151Z,3.70
2023-02-25T10:47:22.425Z,3.83
2023-02-25T10:50:11.828Z,3.00
2023-02-25T10:52:55.612Z,3.97
2023-02-25T10:55:51.838Z,3.50
2023-02-25T10:58:40.433Z,3.60
2023-02-25T11:01:15.180Z,3.20
2023-02-25T11:03:53.882Z,3.33
2023-02-25T11:06:25.487Z,3.40
2023-02-25T11:08:54.826Z,4.13
2023-02-25T11:11:24.305Z,3.63
2023-02-25T11:13:57.745Z,3.20
2023-02-25T11:16:27.524Z,4.27
2023-02-25T11:18:56.892Z,4.50
2023-02-25T11:21:33.464Z,4.00
2023-02-25T11:24:03.304Z,3.87
2023-02-25T11:26:33.057Z,4.10
2023-02-25T11:29:02.172Z,4.10
2023-02-25T11:31:37.202Z,4.63
2023-02-25T11:34:07.709Z,7.77
2023-02-25T11:36:37.202Z,6.40
2023-02-25T11:39:08.229Z,5.80
2023-02-25T11:41:36.450Z,4.63
2023-02-25T11:44:18.969Z,5.10
2023-02-25T11:46:50.866Z,4.30
2023-02-25T11:49:21.088Z,4.23
2023-02-25T11:51:52.297Z,3.50
2023-02-25T11:54:25.993Z,3.67
2023-02-25T11:56:56.592Z,3.60
2023-02-25T11:59:34.657Z,4.13
2023-02-25T12:02:21.414Z,4.20
2023-02-25T12:05:11.040Z,4.43
2023-02-25T12:08:12.805Z,4.13
2023-02-25T12:11:06.339Z,2.70
2023-02-25T12:13:57.628Z,1.90
2023-02-25T12:16:46.948Z,2.77
2023-02-25T12:19:38.351Z,3.20
2023-02-25T12:22:24.280Z,3.03
2023-02-25T12:25:06.772Z,3.17
2023-02-25T12:27:55.674Z,2.83
2023-02-25T12:31:14.329Z,2.70
2023-02-25T12:34:11.416Z,1.90
2023-02-25T12:36:54.816Z,2.50
2023-02-25T12:39:41.034Z,3.63
2023-02-25T12:42:14.968Z,2.50
2023-02-25T12:45:04.689Z,2.57
2023-02-25T12:47:46.402Z,2.13
2023-02-25T12:50:45.200Z,2.73
2023-02-25T12:53:29.519Z,3.10
2023-02-25T12:56:07.960Z,3.33
2023-02-25T12:58:48.986Z,2.93
2023-02-25T13:01:39.853Z,3.20
2023-02-25T13:04:48.922Z,3.27
2023-02-25T13:07:31.917Z,2.70
2023-02-25T13:10:38.418Z,3.50
2023-02-25T13:13:20.271Z,3.73
2023-02-25T13:15:55.705Z,3.10
2023-02-25T13:18:27.952Z,2.33
2023-02-25T13:21:30.033Z,2.40
2023-02-25T13:24:08.403Z,2.20
2023-02-25T13:26:56.988Z,2.10
2023-02-25T13:29:31.179Z,2.40
2023-02-25T13:32:10.802Z,2.47
2023-02-25T13:34:40.750Z,3.03
2023-02-25T13:37:19.161Z,3.40
2023-02-25T13:39:54.423Z,3.50
2023-02-25T13:42:35.535Z,4.40
2023-02-25T13:45:33.028Z,4.53
2023-02-25T13:48:29.446Z,5.30
2023-02-25T13:51:06.904Z,4.93
2023-02-25T13:53:47.904Z,4.70
2023-02-25T13:56:26.164Z,3.87
2023-02-25T13:59:03.772Z,3.57
2023-02-25T14:01:57.611Z,4.33
2023-02-25T14:04:51.148Z,4.47
2023-02-25T14:07:37.641Z,4.27
2023-02-25T14:10:19.641Z,3.47
2023-02-25T14:12:55.486Z,3.27
2023-02-25T14:15:38.030Z,3.30
2023-02-25T14:18:23.372Z,3.40
2023-02-25T14:20:56.984Z,3.07
2023-02-25T14:23:29.296Z,3.77
2023-02-25T14:26:13.497Z,3.93
2023-02-25T14:28:44.140Z,3.90
2023-02-25T14:31:15.967Z,3.70
2023-02-25T14:33:59.111Z,3.80
2023-02-25T14:36:35.270Z,3.77
2023-02-25T14:39:23.797Z,3.50
2023-02-25T14:41:59.176Z,3.80
2023-02-25T14:44:30.846Z,3.23
2023-02-25T14:47:02.348Z,3.80
2023-02-25T14:49:32.902Z,4.00
2023-02-25T14:52:20.794Z,3.80
2023-02-25T14:55:24.939Z,3.73
2023-02-25T14:58:36.058Z,3.83
2023-02-25T15:01:30.633Z,4.40
2023-02-25T15:04:35.621Z,4.37
2023-02-25T15:07:19.093Z,4.83
2023-02-25T15:10:30.002Z,4.07
2023-02-25T15:13:33.740Z,4.30
2023-02-25T15:16:17.493Z,3.93
2023-02-25T15:19:17.206Z,3.90
2023-02-25T15:21:46.733Z,4.37
2023-02-25T15:24:40.820Z,4.70
2023-02-25T15:27:56.743Z,5.37
2023-02-25T15:30:25.948Z,5.30
2023-02-25T15:33:14.772Z,5.57
2023-02-25T15:36:22.813Z,5.30
2023-02-25T15:38:51.601Z,3.97
2023-02-25T15:41:44.841Z,4.47
2023-02-25T15:44:37.284Z,4.23
2023-02-25T15:47:30.497Z,5.03
2023-02-25T15:49:59.670Z,6.30
2023-02-25T15:52:53.570Z,7.70
2023-02-25T15:55:33.636Z,7.20
2023-02-25T15:58:03.259Z,7.87
2023-02-25T16:00:54.620Z,8.00
2023-02-25T16:03:44.547Z,8.63
2023-02-25T16:06:19.031Z,8.97
2023-02-25T16:08:56.473Z,8.77
2023-02-25T16:11:27.775Z,7.10
2023-02-25T16:13:57.382Z,5.13
2023-02-25T16:16:25.746Z,4.80
2023-02-25T16:18:54.067Z,3.87
2023-02-25T16:21:26.426Z,4.03
2023-02-25T16:23:55.297Z,5.00
2023-02-25T16:26:30.832Z,4.03
2023-02-25T16:29:05.684Z,3.80
2023-02-25T16:31:36.309Z,4.53
2023-02-25T16:34:06.316Z,4.97
2023-02-25T16:36:37.345Z,5.27
2023-02-25T16:39:06.838Z,4.90
2023-02-25T16:41:38.648Z,5.43
2023-02-25T16:44:08.980Z,5.40
2023-02-25T16:46:39.201Z,5.97
2023-02-25T16:49:10.166Z,5.67
2023-02-25T16:51:39.318Z,5.60
2023-02-25T16:54:09.594Z,7.60
2023-02-25T16:56:37.852Z,7.77
2023-02-25T16:59:16.561Z,8.00
2023-02-25T17:01:48.609Z,6.63
2023-02-25T17:04:19.740Z,8.20
2023-02-25T17:07:08.961Z,6.50
2023-02-25T17:09:37.351Z,7.10
2023-02-25T17:12:05.858Z,7.43
2023-02-25T17:14:35.543Z,7.00
2023-02-25T17:17:03.841Z,7.00
2023-02-25T17:19:32.166Z,8.00
2023-02-25T17:22:00.507Z,8.60
2023-02-25T17:24:30.569Z,8.27
2023-02-25T17:26:58.806Z,9.13
2023-02-25T17:29:36.030Z,8.53
2023-02-25T17:32:13.892Z,9.70
2023-02-25T17:34:42.206Z,10.13
2023-02-25T17:37:12.379Z,8.60
2023-02-25T17:39:40.718Z,8.20
2023-02-25T17:42:29.785Z,6.47
2023-02-25T17:44:59.433Z,6.17
2023-02-25T17:47:28.723Z,7.83
2023-02-25T17:49:57.057Z,6.37
2023-02-25T17:52:25.984Z,6.50
2023-02-25T17:54:58.568Z,7.70
2023-02-25T17:57:27.569Z,6.63
2023-02-25T17:59:57.070Z,6.60
2023-02-25T18:02:36.264Z,7.00
2023-02-25T18:05:25.729Z,6.80
2023-02-25T18:08:18.125Z,7.97
2023-02-25T18:10:51.977Z,7.67
2023-02-25T18:13:22.636Z,7.10
2023-02-25T18:15:59.994Z,7.53
2023-02-25T18:18:29.792Z,6.67
2023-02-25T18:20:58.785Z,7.60
2023-02-25T18:23:27.726Z,7.10
2023-02-25T18:26:11.904Z,7.60
2023-02-25T18:28:40.190Z,7.13
2023-02-25T18:31:09.925Z,6.60
2023-02-25T18:33:39.738Z,6.70
2023-02-25T18:36:09.093Z,6.27
2023-02-25T18:38:37.788Z,7.00
2023-02-25T18:41:07.426Z,6.17
2023-02-25T18:43:40.061Z,6.13
2023-02-25T18:46:08.347Z,6.20
2023-02-25T18:48:36.642Z,6.17
2023-02-25T18:51:07.566Z,5.60
2023-02-25T18:53:35.835Z,5.33
2023-02-25T18:56:04.095Z,5.83
2023-02-25T18:58:32.434Z,6.50
2023-02-25T19:01:00.787Z,5.80
2023-02-25T19:03:30.590Z,5.40
2023-02-25T19:05:58.858Z,5.70
2023-02-25T19:08:28.501Z,6.10
2023-02-25T19:10:56.898Z,6.13
2023-02-25T19:13:26.900Z,6.20
2023-02-25T19:15:55.214Z,6.20
2023-02-25T19:18:23.502Z,6.43
2023-02-25T19:20:51.817Z,6.27
2023-02-25T19:23:20.748Z,6.90
2023-02-25T19:25:52.278Z,6.00
2023-02-25T19:28:20.578Z,6.17
2023-02-25T19:30:48.863Z,6.10
2023-02-25T19:33:17.121Z,6.10
2023-02-25T19:35:45.630Z,6.57
2023-02-25T19:38:16.044Z,6.70
2023-02-25T19:40:44.396Z,7.50
2023-02-25T19:43:14.064Z,7.70
2023-02-25T19:45:42.783Z,6.70
2023-02-25T19:48:11.135Z,8.03
2023-02-25T19:50:41.129Z,7.73
2023-02-25T19:53:09.453Z,9.10
2023-02-25T19:55:39.073Z,8.30
2023-02-25T19:58:07.337Z,8.90
2023-02-25T20:00:37.048Z,9.03
2023-02-25T20:03:05.476Z,8.93
2023-02-25T20:05:33.792Z,8.00
2023-02-25T20:08:02.324Z,10.17
2023-02-25T20:10:30.607Z,10.00
2023-02-25T20:12:58.964Z,10.17
2023-02-25T20:15:27.624Z,11.37
2023-02-25T20:17:57.681Z,10.17
2023-02-25T20:20:25.974Z,10.20
2023-02-25T20:22:54.342Z,10.63
2023-02-25T20:25:23.009Z,10.80
2023-02-25T20:27:51.272Z,9.83
2023-02-25T20:30:19.734Z,12.00
2023-02-25T20:32:48.001Z,11.40
2023-02-25T20:35:20.478Z,10.97
2023-02-25T20:37:58.934Z,10.83
2023-02-25T20:40:27.610Z,11.77
2023-02-25T20:42:56.153Z,10.63
2023-02-25T20:45:24.903Z,11.03
2023-02-25T20:47:53.565Z,11.07
2023-02-25T20:50:24.841Z,10.17
2023-02-25T20:52:53.283Z,10.53
2023-02-25T20:55:21.816Z,11.53
2023-02-25T20:57:50.069Z,11.53
2023-02-25T21:00:20.607Z,10.90
2023-02-25T21:02:48.912Z,11.17
2023-02-25T21:05:17.353Z,10.83
2023-02-25T21:07:47.066Z,12.47
2023-02-25T21:10:15.427Z,12.53
2023-02-25T21:12:43.717Z,12.40
2023-02-25T21:15:12.849Z,12.10
2023-02-25T21:17:41.968Z,11.30
2023-02-25T21:20:11.734Z,13.10
2023-02-25T21:22:39.992Z,11.27
2023-02-25T21:25:10.379Z,11.60
2023-02-25T21:27:38.902Z,12.50
2023-02-25T21:30:08.619Z,11.37
2023-02-25T21:32:37.218Z,13.00
2023-02-25T21:35:05.838Z,13.10
2023-02-25T21:37:34.101Z,12.77
2023-02-25T21:40:02.354Z,12.70
2023-02-25T21:42:32.025Z,12.20
2023-02-25T21:45:00.332Z,13.00
2023-02-25T21:47:28.698Z,14.03
2023-02-25T21:49:57.175Z,13.07
2023-02-25T21:52:25.687Z,14.80
2023-02-25T21:54:54.208Z,12.27
2023-02-25T21:57:22.617Z,14.87
2023-02-25T21:59:53.987Z,11.77
2023-02-25T22:02:22.284Z,12.43
2023-02-25T22:04:50.505Z,13.03
2023-02-25T22:07:19.194Z,13.63
2023-02-25T22:09:47.457Z,13.17
2023-02-25T22:12:16.733Z,11.60
2023-02-25T22:14:45.054Z,11.47
2023-02-25T22:17:14.682Z,15.23
2023-02-25T22:19:42.924Z,16.73
2023-02-25T22:22:11.870Z,12.90
2023-02-25T22:24:41.324Z,11.30
2023-02-25T22:27:09.595Z,13.00
2023-02-25T22:29:37.887Z,12.10
2023-02-25T22:32:06.530Z,10.93
2023-02-25T22:34:36.276Z,13.63
2023-02-25T22:37:04.607Z,12.20
2023-02-25T22:39:32.867Z,11.87
2023-02-25T22:42:01.113Z,12.40
2023-02-25T22:44:29.334Z,11.50
2023-02-25T22:46:57.605Z,11.00
2023-02-25T22:49:25.860Z,12.57
2023-02-25T22:51:55.552Z,12.80
2023-02-25T22:54:23.809Z,11.87
2023-02-25T22:56:52.051Z,11.17
2023-02-25T22:59:20.738Z,12.87
2023-02-25T23:01:49.032Z,10.73
2023-02-25T23:04:17.353Z,11.10
2023-02-25T23:06:46.009Z,10.47
2023-02-25T23:09:16.232Z,9.17
2023-02-25T23:11:45.022Z,9.50
2023-02-25T23:14:13.529Z,9.33
2023-02-25T23:16:42.519Z,9.83
2023-02-25T23:19:11.441Z,8.00
2023-02-25T23:21:39.806Z,8.27
2023-02-25T23:24:08.856Z,6.93
2023-02-25T23:26:40.902Z,6.37
2023-02-25T23:29:10.104Z,6.77
2023-02-25T23:31:39.398Z,7.07
2023-02-25T23:34:09.035Z,8.23
2023-02-25T23:36:37.362Z,8.63
2023-02-25T23:39:06.383Z,8.13
2023-02-25T23:41:35.232Z,7.93
2023-02-25T23:44:05.250Z,7.50
2023-02-25T23:46:33.548Z,6.97
2023-02-25T23:49:02.668Z,6.13
2023-02-25T23:51:31.000Z,7.60
2023-02-25T23:54:00.490Z,7.57
2023-02-25T23:56:28.985Z,7.27
2023-02-25T23:58:57.251Z,6.80
